Time;durP1;ratioP1;P1;durP2;ratioP2;P2;SDS_P1;SDS_P2;PMS_P1;PMS_P2;Temp;Humidity;BMP_temperature;BMP_pressure;BME280_temperature;BME280_humidity;BME280_pressure;Samples;Min_cycle;Max_cycle;Signal;HPM_P1;HPM_P2
2023/06/05 00:02:16;;;;;;;7.80;5.10;;;17.20;99.90;;;;;;5077550;28;20601;-79
2023/06/05 00:04:43;;;;;;;11.00;5.33;;;17.20;99.90;;;;;;5056978;28;20274;-79
2023/06/05 00:07:09;;;;;;;10.07;5.07;;;17.20;99.90;;;;;;5074465;28;20508;-79
2023/06/05 00:09:36;;;;;;;12.30;5.90;;;17.20;99.90;;;;;;5091138;27;20647;-79
2023/06/05 00:12:02;;;;;;;10.37;5.60;;;17.20;99.90;;;;;;5075258;28;21971;-79
2023/06/05 00:14:28;;;;;;;9.77;5.90;;;17.20;99.90;;;;;;5079950;28;20296;-79
2023/06/05 00:16:56;;;;;;;12.83;6.13;;;17.20;99.90;;;;;;5057890;28;20702;-77
2023/06/05 00:19:23;;;;;;;13.93;6.17;;;17.20;99.90;;;;;;5059358;28;20190;-77
2023/06/05 00:21:52;;;;;;;10.30;5.63;;;17.30;99.90;;;;;;5071870;28;20182;-77
2023/06/05 00:24:19;;;;;;;12.13;6.13;;;17.30;99.90;;;;;;5059097;28;20554;-77
2023/06/05 00:26:46;;;;;;;10.77;6.03;;;17.30;99.90;;;;;;5056367;28;20300;-77
2023/06/05 00:29:13;;;;;;;14.50;6.30;;;17.30;99.90;;;;;;5088834;28;20190;-77
2023/06/05 00:31:39;;;;;;;7.87;5.80;;;17.30;99.90;;;;;;5054845;28;20307;-77
2023/06/05 00:34:05;;;;;;;10.53;6.20;;;17.30;99.90;;;;;;5087629;28;20219;-77
2023/06/05 00:36:32;;;;;;;10.43;6.10;;;17.30;99.90;;;;;;5075926;28;20201;-76
2023/06/05 00:38:58;;;;;;;13.23;5.70;;;17.20;99.90;;;;;;5075156;28;20190;-77
2023/06/05 00:41:25;;;;;;;12.17;5.53;;;17.20;99.90;;;;;;5060211;28;20211;-77
2023/06/05 00:43:52;;;;;;;11.10;6.33;;;17.20;99.90;;;;;;5060216;28;20190;-77
2023/06/05 00:46:19;;;;;;;10.47;5.83;;;17.20;99.90;;;;;;5075091;28;20209;-78
2023/06/05 00:48:48;;;;;;;7.53;5.47;;;17.20;99.90;;;;;;5074559;28;20278;-78
2023/06/05 00:51:16;;;;;;;13.80;5.80;;;17.20;99.90;;;;;;5074157;28;20231;-78
2023/06/05 00:53:47;;;;;;;10.97;5.90;;;17.20;99.90;;;;;;5077614;28;20709;-78
2023/06/05 00:56:14;;;;;;;13.00;5.67;;;17.30;99.90;;;;;;5059589;28;20721;-78
2023/06/05 00:58:40;;;;;;;13.90;6.23;;;17.30;99.90;;;;;;5073107;28;20276;-79
2023/06/05 01:01:11;;;;;;;8.93;5.47;;;17.30;99.90;;;;;;5059613;28;20722;-78
2023/06/05 01:03:39;;;;;;;11.53;5.57;;;17.30;99.90;;;;;;5057923;28;21047;-78
2023/06/05 01:06:06;;;;;;;12.83;6.17;;;17.20;99.90;;;;;;5073214;28;20301;-78
2023/06/05 01:08:41;;;;;;;9.03;6.00;;;17.20;99.90;;;;;;5078352;28;20761;-78
2023/06/05 01:11:28;;;;;;;9.33;6.10;;;17.10;99.90;;;;;;5055479;28;20690;-78
2023/06/05 01:14:07;;;;;;;12.97;6.13;;;17.00;99.90;;;;;;5056250;28;20193;-77
2023/06/05 01:16:40;;;;;;;8.70;5.90;;;16.90;99.90;;;;;;5053136;28;20190;-77
2023/06/05 01:19:10;;;;;;;10.50;5.97;;;16.90;99.90;;;;;;5074844;28;20364;-77
2023/06/05 01:21:36;;;;;;;10.67;6.30;;;16.80;99.90;;;;;;5072889;28;20190;-77
2023/06/05 01:24:05;;;;;;;12.33;6.83;;;16.80;99.90;;;;;;5059445;28;20205;-77
2023/06/05 01:27:03;;;;;;;12.63;6.50;;;16.80;99.90;;;;;;5059374;28;20223;-78
2023/06/05 01:29:56;;;;;;;9.47;6.53;;;16.80;99.90;;;;;;5079314;28;20181;-77
2023/06/05 01:33:13;;;;;;;12.73;6.77;;;16.80;99.90;;;;;;5057622;28;20191;-77
2023/06/05 01:35:41;;;;;;;10.43;6.37;;;16.70;99.90;;;;;;5080023;28;20186;-77
2023/06/05 01:38:11;;;;;;;9.90;6.97;;;16.60;99.90;;;;;;5080852;28;20198;-77
2023/06/05 01:40:39;;;;;;;10.87;6.57;;;16.70;99.90;;;;;;5076973;28;20220;-78
2023/06/05 01:43:08;;;;;;;9.43;6.47;;;16.70;99.90;;;;;;5062435;28;20293;-78
2023/06/05 01:45:37;;;;;;;12.20;6.80;;;16.70;99.90;;;;;;5083317;28;20667;-78
2023/06/05 01:48:04;;;;;;;11.33;6.90;;;16.70;99.90;;;;;;5048114;28;20244;-78
2023/06/05 01:50:35;;;;;;;10.80;6.80;;;16.60;99.90;;;;;;5079314;28;20197;-77
2023/06/05 01:53:03;;;;;;;10.97;7.63;;;16.70;99.90;;;;;;5081137;28;20319;-77
2023/06/05 01:55:29;;;;;;;13.03;7.33;;;16.70;99.90;;;;;;5056863;28;20194;-77
2023/06/05 01:57:55;;;;;;;12.13;7.70;;;16.70;99.90;;;;;;5049254;28;20632;-76
2023/06/05 02:00:21;;;;;;;14.70;7.53;;;16.70;99.90;;;;;;5077469;28;20357;-76
2023/06/05 02:02:49;;;;;;;9.30;6.47;;;16.60;99.90;;;;;;5078678;28;20235;-77
2023/06/05 02:05:19;;;;;;;12.33;6.90;;;16.60;99.90;;;;;;5062208;28;20202;-77
2023/06/05 02:07:58;;;;;;;12.87;7.63;;;16.60;99.90;;;;;;5075900;28;20195;-77
2023/06/05 02:10:25;;;;;;;11.40;7.30;;;16.60;99.90;;;;;;5070980;28;20182;-77
2023/06/05 02:12:51;;;;;;;14.60;7.20;;;16.70;99.90;;;;;;5088303;28;20288;-77
2023/06/05 02:15:18;;;;;;;12.77;7.33;;;16.60;99.90;;;;;;5061442;28;20186;-76
2023/06/05 02:17:49;;;;;;;11.67;7.23;;;16.60;99.90;;;;;;5073820;28;20236;-76
2023/06/05 02:20:16;;;;;;;9.80;7.00;;;16.50;99.90;;;;;;5062190;28;20200;-77
2023/06/05 02:22:44;;;;;;;8.50;7.27;;;16.50;99.90;;;;;;5063717;28;20186;-77
2023/06/05 02:25:11;;;;;;;8.80;6.60;;;16.40;99.90;;;;;;5076507;28;20222;-77
2023/06/05 02:27:38;;;;;;;11.40;7.50;;;16.40;99.90;;;;;;5094806;28;20192;-78
2023/06/05 02:30:05;;;;;;;10.57;7.60;;;16.50;99.90;;;;;;5081094;28;20196;-77
2023/06/05 02:32:31;;;;;;;9.13;6.93;;;16.50;99.90;;;;;;5062340;28;20175;-77
2023/06/05 02:34:58;;;;;;;10.17;6.50;;;16.50;99.90;;;;;;5069337;28;20192;-77
2023/06/05 02:37:27;;;;;;;9.83;7.90;;;16.50;99.90;;;;;;5082221;28;21194;-77
2023/06/05 02:39:53;;;;;;;12.80;7.93;;;16.50;99.90;;;;;;5066638;28;20186;-77
2023/06/05 02:42:20;;;;;;;11.53;7.93;;;16.40;99.90;;;;;;5064469;28;20772;-77
2023/06/05 02:44:47;;;;;;;10.10;7.23;;;16.30;99.90;;;;;;5078570;28;20311;-77
2023/06/05 02:47:13;;;;;;;12.03;7.43;;;16.40;99.90;;;;;;5050939;28;20248;-77
2023/06/05 02:49:40;;;;;;;9.80;7.00;;;16.40;99.90;;;;;;5063126;28;20711;-77
2023/06/05 02:52:06;;;;;;;13.50;7.37;;;16.50;99.90;;;;;;5063069;28;20662;-77
2023/06/05 02:54:37;;;;;;;12.03;7.43;;;16.50;99.90;;;;;;5083674;28;20305;-77
2023/06/05 02:57:06;;;;;;;9.10;6.63;;;16.60;99.90;;;;;;5083058;28;20402;-77
2023/06/05 02:59:39;;;;;;;7.47;6.70;;;16.60;99.90;;;;;;5083602;28;20195;-77
2023/06/05 03:02:09;;;;;;;13.43;7.43;;;16.60;99.90;;;;;;5064693;28;20194;-78
2023/06/05 03:04:40;;;;;;;11.07;7.27;;;16.60;99.90;;;;;;5064921;28;20243;-77
2023/06/05 03:07:09;;;;;;;12.60;8.30;;;16.60;99.90;;;;;;5085168;28;20178;-77
2023/06/05 03:09:36;;;;;;;11.23;7.67;;;16.60;99.90;;;;;;5079036;28;20185;-77
2023/06/05 03:12:03;;;;;;;12.57;8.00;;;16.70;99.90;;;;;;5077297;28;20190;-77
2023/06/05 03:14:32;;;;;;;17.43;8.77;;;16.80;99.90;;;;;;5081224;28;20197;-77
2023/06/05 03:16:59;;;;;;;12.43;7.40;;;16.80;99.90;;;;;;5078622;28;20660;-77
2023/06/05 03:19:27;;;;;;;17.70;8.47;;;16.90;99.90;;;;;;5064733;28;20185;-77
2023/06/05 03:21:53;;;;;;;12.23;8.40;;;16.90;99.90;;;;;;5060861;28;20236;-75
2023/06/05 03:24:20;;;;;;;13.03;8.93;;;17.00;99.90;;;;;;5070763;28;20211;-76
2023/06/05 03:26:46;;;;;;;14.07;8.93;;;17.00;99.90;;;;;;5065286;28;20211;-76
2023/06/05 03:29:13;;;;;;;12.63;9.03;;;17.00;99.90;;;;;;5084663;28;20269;-77
2023/06/05 03:31:39;;;;;;;17.73;9.90;;;17.00;99.90;;;;;;5081630;28;20244;-77
2023/06/05 03:34:06;;;;;;;15.57;9.57;;;17.00;99.90;;;;;;5051488;28;20835;-76
2023/06/05 03:36:37;;;;;;;14.77;10.73;;;17.00;99.90;;;;;;5092746;28;20823;-78
2023/06/05 03:39:04;;;;;;;15.63;10.70;;;17.00;99.90;;;;;;5061082;28;20727;-78
2023/06/05 03:41:30;;;;;;;13.00;10.97;;;17.00;99.90;;;;;;5094366;28;20213;-75
2023/06/05 03:43:58;;;;;;;16.07;11.53;;;17.10;99.90;;;;;;5065885;28;20519;-75
2023/06/05 03:46:24;;;;;;;15.23;12.10;;;17.10;99.90;;;;;;5063670;28;20222;-78
2023/06/05 03:48:55;;;;;;;16.10;12.20;;;17.10;99.90;;;;;;5079053;28;20218;-78
2023/06/05 03:51:21;;;;;;;13.83;11.77;;;17.10;99.90;;;;;;5062996;28;20197;-79
2023/06/05 03:53:54;;;;;;;14.50;11.80;;;17.20;99.90;;;;;;5064902;28;20270;-77
2023/06/05 03:56:21;;;;;;;17.30;12.87;;;17.20;99.90;;;;;;5078163;28;20198;-77
2023/06/05 03:58:48;;;;;;;17.33;12.57;;;17.20;99.90;;;;;;5062403;28;20652;-77
2023/06/05 04:01:14;;;;;;;14.50;12.10;;;17.20;99.90;;;;;;5065160;28;20733;-78
2023/06/05 04:03:41;;;;;;;17.67;13.20;;;17.30;99.90;;;;;;5061075;28;20186;-78
2023/06/05 04:06:08;;;;;;;15.70;14.00;;;17.30;99.90;;;;;;5068499;28;20210;-77
2023/06/05 04:08:35;;;;;;;18.77;14.60;;;17.40;99.90;;;;;;5082460;28;20194;-77
2023/06/05 04:11:01;;;;;;;16.77;13.90;;;17.40;99.90;;;;;;5082280;28;20542;-78
2023/06/05 04:13:27;;;;;;;16.50;14.33;;;17.40;99.90;;;;;;5049595;28;21099;-77
2023/06/05 04:15:53;;;;;;;16.93;13.60;;;17.50;99.90;;;;;;5069184;28;20618;-77
2023/06/05 04:18:20;;;;;;;16.97;13.73;;;17.50;99.90;;;;;;5079423;28;20189;-78
2023/06/05 04:20:46;;;;;;;17.07;13.73;;;17.60;99.90;;;;;;5045137;28;20198;-77
2023/06/05 04:23:13;;;;;;;16.57;13.63;;;17.60;99.90;;;;;;5062952;28;20804;-78
2023/06/05 04:25:45;;;;;;;20.13;14.20;;;17.60;99.90;;;;;;5063667;28;20275;-78
2023/06/05 04:28:12;;;;;;;21.23;15.60;;;17.60;99.90;;;;;;5075793;28;20368;-76
2023/06/05 04:30:38;;;;;;;21.17;14.23;;;17.70;99.90;;;;;;5081610;28;20255;-76
2023/06/05 04:33:06;;;;;;;21.10;14.40;;;17.70;99.90;;;;;;5062169;28;20194;-75
2023/06/05 04:35:33;;;;;;;21.33;14.47;;;17.80;99.90;;;;;;5077656;28;20281;-76
2023/06/05 04:38:00;;;;;;;21.47;14.07;;;17.80;99.90;;;;;;5063378;28;20940;-78
2023/06/05 04:40:27;;;;;;;19.63;14.60;;;17.80;99.90;;;;;;5062711;28;20308;-78
2023/06/05 04:42:54;;;;;;;15.93;12.83;;;17.90;99.90;;;;;;5081558;28;20262;-77
2023/06/05 04:45:21;;;;;;;17.73;13.47;;;17.90;99.90;;;;;;5047820;28;20198;-75
2023/06/05 04:47:48;;;;;;;16.33;14.00;;;17.90;99.90;;;;;;5065308;28;20196;-76
2023/06/05 04:50:29;;;;;;;22.70;14.33;;;18.00;99.90;;;;;;5050679;28;20182;-76
2023/06/05 04:52:56;;;;;;;20.83;14.17;;;18.10;99.90;;;;;;5079123;28;20215;-76
2023/06/05 04:55:22;;;;;;;20.27;14.00;;;18.10;99.90;;;;;;5061382;28;20193;-76
2023/06/05 04:57:48;;;;;;;17.27;13.67;;;18.20;99.90;;;;;;5098234;28;20193;-76
2023/06/05 05:00:15;;;;;;;15.50;13.30;;;18.20;99.90;;;;;;5097384;28;20235;-76
2023/06/05 05:02:42;;;;;;;20.90;14.00;;;18.20;99.90;;;;;;5081846;28;20193;-76
2023/06/05 05:05:08;;;;;;;17.03;14.00;;;18.30;99.90;;;;;;5094801;28;20595;-76
2023/06/05 05:07:35;;;;;;;17.60;12.93;;;18.30;99.90;;;;;;5083570;28;20190;-76
2023/06/05 05:10:02;;;;;;;19.13;12.40;;;18.30;99.90;;;;;;5084420;28;20273;-76
2023/06/05 05:12:28;;;;;;;17.97;12.77;;;18.40;99.90;;;;;;5082313;28;20284;-76
2023/06/05 05:14:55;;;;;;;16.93;12.73;;;18.40;99.90;;;;;;5070359;28;20192;-76
2023/06/05 05:17:22;;;;;;;18.23;12.57;;;18.40;99.90;;;;;;5096938;28;20641;-76
2023/06/05 05:19:48;;;;;;;21.63;12.53;;;18.40;99.90;;;;;;5066536;28;20225;-76
2023/06/05 05:22:14;;;;;;;18.80;12.67;;;18.50;99.90;;;;;;5083213;28;20190;-76
2023/06/05 05:24:41;;;;;;;17.47;12.40;;;18.60;99.90;;;;;;5085698;28;20217;-77
2023/06/05 05:27:08;;;;;;;18.83;12.33;;;18.70;99.90;;;;;;5051938;28;20183;-77
2023/06/05 05:29:34;;;;;;;17.93;12.37;;;18.70;99.90;;;;;;5097867;27;20673;-77
2023/06/05 05:32:00;;;;;;;15.10;11.97;;;18.80;99.90;;;;;;5068477;28;20221;-77
2023/06/05 05:34:26;;;;;;;18.57;11.93;;;18.80;99.90;;;;;;5079176;28;20633;-76
2023/06/05 05:36:53;;;;;;;17.57;11.37;;;18.90;99.90;;;;;;5080547;28;20243;-76
2023/06/05 05:39:20;;;;;;;17.80;10.70;;;19.00;99.90;;;;;;5082838;28;20933;-76
2023/06/05 05:41:46;;;;;;;17.37;10.70;;;18.90;99.90;;;;;;5065531;28;20201;-76
2023/06/05 05:44:12;;;;;;;19.57;10.77;;;19.10;99.90;;;;;;5077934;28;20204;-76
2023/06/05 05:46:38;;;;;;;12.87;10.20;;;19.10;99.90;;;;;;5081674;28;20342;-76
2023/06/05 05:49:05;;;;;;;15.07;10.80;;;19.10;99.90;;;;;;5083200;28;20289;-76
2023/06/05 05:51:31;;;;;;;18.30;10.30;;;19.20;99.90;;;;;;5079397;28;20236;-76
2023/06/05 05:53:57;;;;;;;15.73;10.90;;;19.30;99.90;;;;;;5096739;28;20190;-76
2023/06/05 05:56:23;;;;;;;13.43;10.17;;;19.30;99.90;;;;;;5065632;28;20193;-76
2023/06/05 05:58:49;;;;;;;13.73;9.83;;;19.30;99.90;;;;;;5081096;28;20414;-76
2023/06/05 06:01:16;;;;;;;13.37;10.90;;;19.40;99.90;;;;;;5065221;28;20267;-76
2023/06/05 06:03:43;;;;;;;14.43;10.57;;;19.50;99.90;;;;;;5082415;28;20659;-76
2023/06/05 06:06:10;;;;;;;14.87;11.33;;;19.50;99.90;;;;;;5062498;28;20317;-76
2023/06/05 06:08:37;;;;;;;19.23;10.87;;;19.60;99.90;;;;;;5065087;28;20183;-77
2023/06/05 06:11:06;;;;;;;13.73;10.93;;;19.70;99.90;;;;;;5065541;28;20198;-76
2023/06/05 06:13:34;;;;;;;15.37;10.80;;;19.70;99.90;;;;;;5064701;28;20255;-79
2023/06/05 06:16:02;;;;;;;15.43;10.47;;;19.80;99.90;;;;;;5082073;28;20186;-78
2023/06/05 06:18:29;;;;;;;14.47;10.63;;;19.90;99.90;;;;;;5066210;28;20196;-78
2023/06/05 06:20:55;;;;;;;14.90;10.50;;;20.00;99.90;;;;;;5064546;28;20206;-76
2023/06/05 06:23:22;;;;;;;13.07;9.90;;;20.00;99.90;;;;;;5081783;28;20206;-74
2023/06/05 06:25:51;;;;;;;15.37;9.90;;;20.00;99.90;;;;;;5067637;28;20341;-74
2023/06/05 06:28:19;;;;;;;15.77;9.40;;;20.10;99.90;;;;;;5066549;28;20195;-74
2023/06/05 06:30:46;;;;;;;14.47;9.10;;;20.20;99.90;;;;;;5068990;28;20191;-74
2023/06/05 06:33:12;;;;;;;11.03;9.50;;;20.30;99.90;;;;;;5065028;28;20228;-74
2023/06/05 06:35:38;;;;;;;11.63;8.97;;;20.30;99.90;;;;;;5069800;28;20190;-74
2023/06/05 06:38:05;;;;;;;18.60;9.23;;;20.40;99.90;;;;;;5083721;28;20314;-74
2023/06/05 06:40:31;;;;;;;11.03;8.73;;;20.50;99.90;;;;;;5082843;28;20517;-74
2023/06/05 06:42:58;;;;;;;13.00;8.50;;;20.50;99.90;;;;;;5088531;28;20242;-74
2023/06/05 06:45:24;;;;;;;10.90;7.83;;;20.60;99.90;;;;;;5067824;28;20206;-74
2023/06/05 06:47:51;;;;;;;13.93;8.17;;;20.70;99.90;;;;;;5067991;28;20186;-74
2023/06/05 06:50:17;;;;;;;14.57;8.47;;;20.70;99.90;;;;;;5064161;28;20911;-74
2023/06/05 06:52:43;;;;;;;13.60;8.30;;;20.90;99.90;;;;;;5084885;28;20194;-74
2023/06/05 06:55:10;;;;;;;10.97;7.70;;;20.90;99.90;;;;;;5066914;28;20238;-74
2023/06/05 06:57:38;;;;;;;13.47;7.63;;;21.00;99.90;;;;;;5078309;28;20198;-74
2023/06/05 07:00:09;;;;;;;9.60;7.40;;;21.00;99.90;;;;;;5095005;28;20660;-74
2023/06/05 07:02:37;;;;;;;14.47;7.87;;;21.10;99.90;;;;;;5084421;28;20338;-74
2023/06/05 07:05:06;;;;;;;10.03;7.50;;;21.20;99.90;;;;;;5070222;28;20289;-74
2023/06/05 07:07:32;;;;;;;11.70;7.27;;;21.30;99.90;;;;;;5079838;28;20274;-74
2023/06/05 07:09:59;;;;;;;11.63;7.37;;;21.30;99.90;;;;;;5082110;28;20466;-74
2023/06/05 07:12:25;;;;;;;12.27;7.67;;;21.50;99.90;;;;;;5075574;28;20248;-73
2023/06/05 07:14:54;;;;;;;15.60;7.20;;;21.50;99.90;;;;;;5060248;28;20244;-74
2023/06/05 07:17:21;;;;;;;9.43;6.47;;;21.60;99.90;;;;;;5069616;28;20853;-74
2023/06/05 07:19:47;;;;;;;13.33;6.37;;;21.60;99.90;;;;;;5071461;28;20182;-74
2023/06/05 07:22:13;;;;;;;12.20;8.10;;;21.70;99.90;;;;;;5084077;28;20195;-74
2023/06/05 07:24:40;;;;;;;10.50;7.20;;;21.90;99.90;;;;;;5084304;28;20574;-73
2023/06/05 07:27:08;;;;;;;14.17;6.83;;;22.00;99.90;;;;;;5067687;28;20186;-74
2023/06/05 07:29:34;;;;;;;8.07;6.53;;;22.00;99.90;;;;;;5067840;28;20217;-73
2023/06/05 07:32:05;;;;;;;9.47;6.40;;;22.10;99.90;;;;;;5049934;28;20197;-74
2023/06/05 07:34:32;;;;;;;9.17;6.33;;;22.20;99.90;;;;;;5101486;27;20911;-74
2023/06/05 07:37:00;;;;;;;8.88;6.57;;;22.30;99.90;;;;;;5086022;28;20692;-74
2023/06/05 07:39:28;;;;;;;10.07;5.53;;;22.40;99.90;;;;;;5073330;28;20187;-74
2023/06/05 07:41:54;;;;;;;8.20;6.22;;;22.40;99.90;;;;;;5069436;28;20543;-74
2023/06/05 07:44:21;;;;;;;9.52;6.03;;;22.60;99.90;;;;;;5084447;28;20222;-73
2023/06/05 07:46:50;;;;;;;12.38;6.65;;;22.70;99.90;;;;;;5054730;28;20302;-74
2023/06/05 07:49:17;;;;;;;7.32;6.40;;;22.90;99.90;;;;;;5084488;28;20201;-74
2023/06/05 07:51:46;;;;;;;9.88;6.68;;;23.00;99.90;;;;;;5086896;28;20189;-74
2023/06/05 07:54:15;;;;;;;10.07;6.72;;;23.00;99.90;;;;;;5080942;28;20182;-73
2023/06/05 07:56:42;;;;;;;11.18;6.20;;;22.90;99.90;;;;;;5078911;28;20190;-74
2023/06/05 07:59:09;;;;;;;11.07;6.88;;;23.10;99.90;;;;;;5047398;28;20201;-74
2023/06/05 08:01:36;;;;;;;13.48;7.20;;;23.10;99.90;;;;;;5082981;28;20701;-74
2023/06/05 08:04:15;;;;;;;13.02;6.80;;;23.20;99.90;;;;;;5051703;28;20544;-74
2023/06/05 08:06:41;;;;;;;8.93;6.40;;;23.20;99.90;;;;;;5087161;28;20573;-74
2023/06/05 08:09:09;;;;;;;11.50;6.45;;;23.20;99.90;;;;;;5053140;28;20567;-74
2023/06/05 08:11:38;;;;;;;13.48;6.35;;;23.30;99.90;;;;;;5064546;28;21053;-73
2023/06/05 08:14:06;;;;;;;9.88;6.25;;;23.30;99.90;;;;;;5086928;28;20186;-73
2023/06/05 08:16:33;;;;;;;12.77;6.68;;;23.30;99.90;;;;;;5062087;28;20186;-73
2023/06/05 08:19:00;;;;;;;10.88;6.50;;;23.40;99.90;;;;;;5075381;28;20318;-74
2023/06/05 08:21:26;;;;;;;13.65;6.53;;;23.40;99.90;;;;;;5078369;28;20190;-74
2023/06/05 08:23:52;;;;;;;10.25;6.22;;;23.60;99.90;;;;;;5044461;28;20532;-73
2023/06/05 08:26:21;;;;;;;11.13;6.45;;;23.80;99.90;;;;;;5069603;28;20233;-73
2023/06/05 08:28:49;;;;;;;13.77;6.60;;;23.80;99.90;;;;;;5057648;28;20186;-73
2023/06/05 08:31:16;;;;;;;12.20;6.32;;;23.80;99.90;;;;;;5075271;28;20315;-73
2023/06/05 08:33:43;;;;;;;13.73;6.75;;;23.90;99.90;;;;;;5076316;28;20190;-73
2023/06/05 08:36:09;;;;;;;7.10;6.13;;;24.00;99.90;;;;;;5080296;28;20675;-74
2023/06/05 08:38:36;;;;;;;13.50;6.70;;;24.10;99.90;;;;;;5061545;28;20451;-73
2023/06/05 08:41:07;;;;;;;13.77;6.82;;;24.20;99.90;;;;;;5071221;28;20293;-74
2023/06/05 08:43:41;;;;;;;12.25;6.38;;;24.10;99.90;;;;;;5057009;28;20735;-73
2023/06/05 08:46:11;;;;;;;10.30;6.32;;;24.30;99.90;;;;;;5071242;28;20259;-73
2023/06/05 08:48:46;;;;;;;12.68;7.00;;;24.40;99.90;;;;;;5045222;28;20590;-73
2023/06/05 08:51:16;;;;;;;11.95;6.28;;;24.40;99.90;;;;;;5058689;28;20186;-73
2023/06/05 08:53:57;;;;;;;12.55;5.85;;;24.30;99.90;;;;;;5074944;28;20325;-73
2023/06/05 08:56:28;;;;;;;14.05;6.55;;;24.10;99.90;;;;;;5070879;28;20178;-73
2023/06/05 08:58:56;;;;;;;9.07;6.20;;;24.20;99.90;;;;;;5077165;28;20264;-74
2023/06/05 09:01:25;;;;;;;11.60;6.88;;;24.50;99.90;;;;;;5073475;28;20212;-73
2023/06/05 09:03:51;;;;;;;11.70;7.28;;;24.60;99.90;;;;;;5053489;28;20191;-74
2023/06/05 09:06:18;;;;;;;14.75;6.63;;;24.70;99.90;;;;;;5058002;28;20222;-74
2023/06/05 09:08:44;;;;;;;9.90;6.10;;;24.80;99.90;;;;;;5071234;28;20350;-74
2023/06/05 09:11:30;;;;;;;13.60;6.50;;;24.70;99.90;;;;;;5070695;28;20244;-74
2023/06/05 09:14:00;;;;;;;11.65;6.88;;;24.70;99.90;;;;;;5073057;28;20182;-74
2023/06/05 09:16:45;;;;;;;13.02;7.20;;;24.80;99.90;;;;;;5071382;28;20532;-74
2023/06/05 09:19:13;;;;;;;15.70;6.38;;;24.90;99.90;;;;;;5051686;28;20186;-74
2023/06/05 09:21:40;;;;;;;10.25;6.10;;;24.90;99.90;;;;;;5085156;28;20281;-74
2023/06/05 09:24:09;;;;;;;12.05;6.40;;;25.00;99.90;;;;;;5046901;28;20271;-74
2023/06/05 09:35:11;;;;;;;16.30;6.43;;;25.30;99.90;;;;;;5077015;28;20195;-74
2023/06/05 09:37:38;;;;;;;18.48;6.45;;;25.40;99.90;;;;;;5057184;28;20466;-74
2023/06/05 09:40:14;;;;;;;11.60;6.22;;;25.30;99.90;;;;;;5067701;28;20535;-74
2023/06/05 09:42:41;;;;;;;13.05;6.40;;;25.30;99.90;;;;;;5068364;28;20185;-74
2023/06/05 09:45:08;;;;;;;16.67;6.72;;;25.40;99.90;;;;;;5057279;28;20224;-74
2023/06/05 09:47:35;;;;;;;19.02;9.15;;;25.30;99.90;;;;;;5041714;28;20199;-74
2023/06/05 09:50:03;;;;;;;20.08;9.05;;;25.40;99.90;;;;;;5055625;28;20535;-74
2023/06/05 09:52:30;;;;;;;9.57;6.45;;;25.60;99.90;;;;;;5071032;28;20255;-74
2023/06/05 09:55:00;;;;;;;40.95;15.52;;;25.60;99.90;;;;;;5057414;28;20862;-74
2023/06/05 09:57:28;;;;;;;12.57;6.72;;;25.70;99.90;;;;;;5055063;28;21018;-74
2023/06/05 09:59:55;;;;;;;11.43;6.78;;;25.70;99.90;;;;;;5056908;28;20312;-74
2023/06/05 10:02:27;;;;;;;13.20;6.30;;;25.70;99.90;;;;;;5041550;28;20706;-74
2023/06/05 10:05:03;;;;;;;13.32;7.18;;;25.80;99.90;;;;;;5071526;28;20187;-74
2023/06/05 10:07:32;;;;;;;18.90;8.50;;;25.70;99.90;;;;;;5040661;28;20301;-75
2023/06/05 10:09:59;;;;;;;18.40;7.32;;;25.70;99.90;;;;;;5070958;28;20190;-74
2023/06/05 10:12:27;;;;;;;13.27;6.80;;;25.90;99.90;;;;;;5087652;28;20233;-74
2023/06/05 10:14:55;;;;;;;10.20;6.20;;;25.80;99.90;;;;;;5054937;28;20214;-74
2023/06/05 10:17:23;;;;;;;19.25;6.97;;;25.60;99.90;;;;;;5089148;28;20243;-74
2023/06/05 10:19:50;;;;;;;13.63;7.15;;;25.20;99.90;;;;;;5044683;28;20185;-74
2023/06/05 10:22:19;;;;;;;10.80;6.28;;;24.90;99.90;;;;;;5054396;28;20230;-74
2023/06/05 10:24:54;;;;;;;30.65;12.85;;;24.70;99.90;;;;;;5071487;28;20283;-74
2023/06/05 10:27:48;;;;;;;14.40;7.55;;;24.50;99.90;;;;;;5051691;28;20187;-74
2023/06/05 10:31:03;;;;;;;14.23;6.28;;;24.50;99.90;;;;;;5067466;28;20297;-74
2023/06/05 10:33:38;;;;;;;11.23;6.80;;;24.20;99.90;;;;;;5059049;28;20178;-74
2023/06/05 10:36:40;;;;;;;12.32;6.97;;;24.20;99.90;;;;;;5073651;28;20209;-74
2023/06/05 10:39:17;;;;;;;13.15;7.28;;;24.30;99.90;;;;;;5056587;28;20347;-74
2023/06/05 10:41:43;;;;;;;12.50;7.10;;;24.40;99.90;;;;;;5074526;28;20270;-74
2023/06/05 10:44:10;;;;;;;27.05;12.00;;;24.30;99.90;;;;;;5071066;28;20198;-74
2023/06/05 10:46:37;;;;;;;15.48;7.40;;;24.30;99.90;;;;;;5072301;28;20213;-74
2023/06/05 10:49:19;;;;;;;13.13;7.25;;;24.20;99.90;;;;;;5084119;27;20229;-73
2023/06/05 10:51:53;;;;;;;111.00;36.65;;;24.20;99.90;;;;;;5051721;28;20181;-74
2023/06/05 10:54:22;;;;;;;18.15;10.07;;;24.10;99.90;;;;;;5069154;28;20249;-74
2023/06/05 10:57:05;;;;;;;13.80;7.60;;;24.10;99.90;;;;;;5081851;27;20276;-74
2023/06/05 10:59:31;;;;;;;13.77;7.45;;;24.10;99.90;;;;;;5053957;28;20198;-74
2023/06/05 11:02:16;;;;;;;14.10;7.05;;;24.10;99.90;;;;;;5079703;27;20186;-74
2023/06/05 11:04:48;;;;;;;12.63;6.88;;;24.10;99.90;;;;;;5066736;28;20209;-74
2023/06/05 11:07:22;;;;;;;11.40;7.38;;;24.00;99.90;;;;;;5066865;28;20630;-74
2023/06/05 11:10:08;;;;;;;14.45;7.68;;;24.00;99.90;;;;;;5082731;28;21251;-74
2023/06/05 11:12:43;;;;;;;11.48;7.35;;;23.90;99.90;;;;;;5066111;28;20185;-74
2023/06/05 11:15:15;;;;;;;15.18;7.38;;;23.90;99.90;;;;;;5078990;27;20191;-74
2023/06/05 11:17:46;;;;;;;14.00;7.57;;;23.90;99.90;;;;;;5070406;28;20202;-74
2023/06/05 11:20:24;;;;;;;16.38;7.45;;;23.80;99.90;;;;;;5067201;28;20225;-74
2023/06/05 11:22:54;;;;;;;17.63;8.02;;;23.80;99.90;;;;;;5064415;28;20221;-74
2023/06/05 11:25:26;;;;;;;18.27;7.88;;;23.90;99.90;;;;;;5038338;28;20200;-74
2023/06/05 11:28:07;;;;;;;14.77;8.32;;;23.90;99.90;;;;;;5038909;28;20309;-74
2023/06/05 11:30:45;;;;;;;12.93;7.60;;;23.90;99.90;;;;;;5052429;28;20194;-74
2023/06/05 11:33:17;;;;;;;17.35;8.30;;;24.00;99.90;;;;;;5069318;28;20186;-74
2023/06/05 11:35:46;;;;;;;13.90;7.38;;;24.00;99.90;;;;;;5052181;28;20193;-74
2023/06/05 11:38:18;;;;;;;12.23;7.18;;;24.00;99.90;;;;;;5051917;28;20744;-74
2023/06/05 11:40:45;;;;;;;12.48;6.90;;;24.00;99.90;;;;;;5055149;28;20213;-74
2023/06/05 11:43:13;;;;;;;14.82;7.35;;;24.00;99.90;;;;;;5065006;28;20204;-74
2023/06/05 11:45:48;;;;;;;11.38;6.97;;;23.90;99.90;;;;;;5071505;28;20703;-75
2023/06/05 11:48:15;;;;;;;12.88;6.53;;;23.80;99.90;;;;;;5037285;28;20205;-74
2023/06/05 11:50:56;;;;;;;17.17;7.25;;;23.80;99.90;;;;;;5067643;28;20580;-75
2023/06/05 11:53:23;;;;;;;15.95;7.90;;;23.70;99.90;;;;;;5056047;28;20220;-75
2023/06/05 11:58:27;;;;;;;15.40;8.50;;;23.70;99.90;;;;;;5068597;28;20327;-74
2023/06/05 12:01:21;;;;;;;20.45;9.88;;;23.70;99.90;;;;;;5072634;28;20189;-74
2023/06/05 12:04:02;;;;;;;22.83;8.50;;;23.70;99.90;;;;;;5076919;28;20579;-74
2023/06/05 12:06:29;;;;;;;13.98;7.47;;;23.70;99.90;;;;;;5075147;28;20206;-75
2023/06/05 12:09:11;;;;;;;11.52;7.28;;;23.70;99.90;;;;;;5071156;28;20285;-74
2023/06/05 12:11:38;;;;;;;14.25;7.20;;;23.80;99.90;;;;;;5073762;28;20243;-74
2023/06/05 12:14:06;;;;;;;18.73;7.47;;;23.80;99.90;;;;;;5073437;28;20699;-74
2023/06/05 12:16:38;;;;;;;43.63;18.38;;;23.80;99.90;;;;;;5074978;28;20643;-74
2023/06/05 12:19:17;;;;;;;14.15;7.53;;;23.90;99.90;;;;;;5071467;28;20190;-75
2023/06/05 12:22:00;;;;;;;19.15;9.52;;;24.00;99.90;;;;;;5071790;28;20190;-75
2023/06/05 12:24:27;;;;;;;14.68;7.50;;;24.10;99.90;;;;;;5050879;28;20194;-74
2023/06/05 12:26:59;;;;;;;50.22;20.85;;;24.20;99.90;;;;;;5057173;28;20217;-75
2023/06/05 12:29:34;;;;;;;16.65;6.95;;;24.30;99.90;;;;;;5073116;28;20269;-74
2023/06/05 12:32:02;;;;;;;9.80;6.07;;;24.30;99.90;;;;;;5051871;28;20182;-74
2023/06/05 12:34:53;;;;;;;16.30;6.70;;;24.30;99.90;;;;;;5054525;28;20203;-75
2023/06/05 12:37:31;;;;;;;12.35;7.15;;;24.40;99.90;;;;;;5073450;28;20217;-74
2023/06/05 12:40:05;;;;;;;62.25;23.83;;;24.40;99.90;;;;;;5073224;28;20543;-74
2023/06/05 12:42:36;;;;;;;35.33;14.45;;;24.30;99.90;;;;;;5073617;28;20205;-74
2023/06/05 12:45:03;;;;;;;17.50;6.93;;;24.30;99.90;;;;;;5076433;28;20273;-74
2023/06/05 12:47:29;;;;;;;13.15;7.10;;;24.20;99.90;;;;;;5055874;28;20309;-74
2023/06/05 12:49:58;;;;;;;11.25;6.70;;;24.10;99.90;;;;;;5070562;28;20178;-74
2023/06/05 12:52:25;;;;;;;10.63;6.65;;;24.10;99.90;;;;;;5073062;28;20277;-74
2023/06/05 12:54:54;;;;;;;71.47;24.05;;;24.10;99.90;;;;;;5059048;28;20580;-74
2023/06/05 12:57:20;;;;;;;18.50;8.68;;;24.00;99.90;;;;;;5073557;28;20294;-74
2023/06/05 12:59:53;;;;;;;10.93;7.40;;;23.90;99.90;;;;;;5071087;28;20619;-74